sensor_id;sensor_type;location;lat;lon;timestamp;P1;durP1;ratioP1;P2;durP2;ratioP2
35530;SDS011;21637;53.352;-6.356;2023-06-10T00:01:24;16.95;;;11.45;;
35530;SDS011;21637;53.352;-6.356;2023-06-10T00:03:50;18.08;;;11.02;;
35530;SDS011;21637;53.352;-6.356;2023-06-10T00:06:19;20.35;;;10.85;;
35530;SDS011;21637;53.352;-6.356;2023-06-10T00:08:47;14.10;;;10.75;;
35530;SDS011;21637;53.352;-6.356;2023-06-10T00:11:13;17.92;;;11.18;;
35530;SDS011;21637;53.352;-6.356;2023-06-10T00:13:38;16.33;;;10.60;;
35530;SDS011;21637;53.352;-6.356;2023-06-10T00:16:05;12.68;;;10.40;;
35530;SDS011;21637;53.352;-6.356;2023-06-10T00:18:31;13.73;;;10.38;;
35530;SDS011;21637;53.352;-6.356;2023-06-10T00:20:57;13.65;;;10.50;;
35530;SDS011;21637;53.352;-6.356;2023-06-10T00:23:29;15.68;;;11.00;;
35530;SDS011;21637;53.352;-6.356;2023-06-10T00:25:57;14.18;;;11.15;;
35530;SDS011;21637;53.352;-6.356;2023-06-10T00:28:24;14.38;;;10.60;;
35530;SDS011;21637;53.352;-6.356;2023-06-10T00:30:50;19.08;;;11.48;;
35530;SDS011;21637;53.352;-6.356;2023-06-10T00:33:16;17.15;;;12.27;;
35530;SDS011;21637;53.352;-6.356;2023-06-10T00:35:42;18.73;;;12.38;;
35530;SDS011;21637;53.352;-6.356;2023-06-10T00:38:07;19.77;;;13.60;;
35530;SDS011;21637;53.352;-6.356;2023-06-10T00:40:35;19.85;;;13.90;;
35530;SDS011;21637;53.352;-6.356;2023-06-10T00:43:05;22.98;;;13.55;;
35530;SDS011;21637;53.352;-6.356;2023-06-10T00:45:32;22.23;;;14.70;;
35530;SDS011;21637;53.352;-6.356;2023-06-10T00:47:58;18.55;;;14.30;;
35530;SDS011;21637;53.352;-6.356;2023-06-10T00:50:28;23.05;;;15.40;;
35530;SDS011;21637;53.352;-6.356;2023-06-10T00:52:54;22.05;;;14.02;;
35530;SDS011;21637;53.352;-6.356;2023-06-10T00:55:20;24.80;;;14.13;;
35530;SDS011;21637;53.352;-6.356;2023-06-10T00:57:46;19.33;;;13.85;;
35530;SDS011;21637;53.352;-6.356;2023-06-10T01:00:16;18.27;;;13.18;;
35530;SDS011;21637;53.352;-6.356;2023-06-10T01:02:42;17.77;;;13.82;;
35530;SDS011;21637;53.352;-6.356;2023-06-10T01:05:08;20.02;;;13.82;;
35530;SDS011;21637;53.352;-6.356;2023-06-10T01:07:39;18.30;;;12.90;;
35530;SDS011;21637;53.352;-6.356;2023-06-10T01:13:05;20.92;;;14.57;;
35530;SDS011;21637;53.352;-6.356;2023-06-10T01:15:33;17.65;;;13.48;;
35530;SDS011;21637;53.352;-6.356;2023-06-10T01:18:06;17.70;;;12.63;;
35530;SDS011;21637;53.352;-6.356;2023-06-10T01:20:34;21.27;;;14.02;;
35530;SDS011;21637;53.352;-6.356;2023-06-10T01:23:05;20.50;;;14.68;;
35530;SDS011;21637;53.352;-6.356;2023-06-10T01:25:31;25.77;;;14.48;;
35530;SDS011;21637;53.352;-6.356;2023-06-10T01:30:30;19.45;;;13.70;;
35530;SDS011;21637;53.352;-6.356;2023-06-10T01:33:02;26.80;;;14.50;;
35530;SDS011;21637;53.352;-6.356;2023-06-10T01:35:32;18.73;;;14.15;;
35530;SDS011;21637;53.352;-6.356;2023-06-10T01:37:59;17.45;;;12.30;;
35530;SDS011;21637;53.352;-6.356;2023-06-10T01:40:27;19.20;;;13.77;;
35530;SDS011;21637;53.352;-6.356;2023-06-10T01:42:54;18.13;;;14.35;;
35530;SDS011;21637;53.352;-6.356;2023-06-10T01:45:20;19.00;;;12.55;;
35530;SDS011;21637;53.352;-6.356;2023-06-10T01:47:46;18.88;;;13.00;;
35530;SDS011;21637;53.352;-6.356;2023-06-10T01:50:12;19.80;;;13.82;;
35530;SDS011;21637;53.352;-6.356;2023-06-10T01:52:38;21.08;;;13.25;;
35530;SDS011;21637;53.352;-6.356;2023-06-10T01:55:04;20.15;;;13.68;;
35530;SDS011;21637;53.352;-6.356;2023-06-10T01:57:30;19.90;;;13.70;;
35530;SDS011;21637;53.352;-6.356;2023-06-10T01:59:56;23.20;;;12.95;;
35530;SDS011;21637;53.352;-6.356;2023-06-10T02:02:21;19.23;;;14.02;;
35530;SDS011;21637;53.352;-6.356;2023-06-10T02:04:47;16.13;;;12.82;;
35530;SDS011;21637;53.352;-6.356;2023-06-10T02:07:13;19.15;;;13.43;;
35530;SDS011;21637;53.352;-6.356;2023-06-10T02:09:39;16.88;;;12.93;;
35530;SDS011;21637;53.352;-6.356;2023-06-10T02:12:05;17.85;;;12.82;;
35530;SDS011;21637;53.352;-6.356;2023-06-10T02:14:31;16.63;;;12.20;;
35530;SDS011;21637;53.352;-6.356;2023-06-10T02:16:58;17.92;;;12.98;;
35530;SDS011;21637;53.352;-6.356;2023-06-10T02:19:23;15.43;;;12.18;;
35530;SDS011;21637;53.352;-6.356;2023-06-10T02:21:51;22.27;;;13.70;;
35530;SDS011;21637;53.352;-6.356;2023-06-10T02:24:18;23.58;;;14.95;;
35530;SDS011;21637;53.352;-6.356;2023-06-10T02:26:43;19.70;;;14.65;;
35530;SDS011;21637;53.352;-6.356;2023-06-10T02:29:10;23.25;;;13.95;;
35530;SDS011;21637;53.352;-6.356;2023-06-10T02:31:36;24.77;;;15.65;;
35530;SDS011;21637;53.352;-6.356;2023-06-10T02:34:02;29.77;;;17.17;;
35530;SDS011;21637;53.352;-6.356;2023-06-10T02:36:29;22.80;;;16.63;;
35530;SDS011;21637;53.352;-6.356;2023-06-10T02:38:54;28.33;;;18.50;;
35530;SDS011;21637;53.352;-6.356;2023-06-10T02:41:20;26.42;;;18.48;;
35530;SDS011;21637;53.352;-6.356;2023-06-10T02:43:47;32.15;;;19.33;;
35530;SDS011;21637;53.352;-6.356;2023-06-10T02:46:12;27.58;;;18.50;;
35530;SDS011;21637;53.352;-6.356;2023-06-10T02:48:45;22.88;;;16.48;;
35530;SDS011;21637;53.352;-6.356;2023-06-10T02:51:11;31.52;;;17.90;;
35530;SDS011;21637;53.352;-6.356;2023-06-10T02:53:37;31.92;;;18.00;;
35530;SDS011;21637;53.352;-6.356;2023-06-10T02:56:03;28.13;;;17.35;;
35530;SDS011;21637;53.352;-6.356;2023-06-10T02:58:28;29.25;;;17.65;;
35530;SDS011;21637;53.352;-6.356;2023-06-10T03:00:54;28.60;;;17.95;;
35530;SDS011;21637;53.352;-6.356;2023-06-10T03:03:20;31.77;;;20.08;;
35530;SDS011;21637;53.352;-6.356;2023-06-10T03:05:47;34.45;;;17.75;;
35530;SDS011;21637;53.352;-6.356;2023-06-10T03:08:13;29.60;;;17.73;;
35530;SDS011;21637;53.352;-6.356;2023-06-10T03:10:39;27.35;;;17.90;;
35530;SDS011;21637;53.352;-6.356;2023-06-10T03:13:05;26.50;;;17.77;;
35530;SDS011;21637;53.352;-6.356;2023-06-10T03:15:31;29.48;;;18.42;;
35530;SDS011;21637;53.352;-6.356;2023-06-10T03:17:59;34.03;;;20.02;;
35530;SDS011;21637;53.352;-6.356;2023-06-10T03:20:25;28.35;;;18.77;;
35530;SDS011;21637;53.352;-6.356;2023-06-10T03:22:52;33.22;;;19.45;;
35530;SDS011;21637;53.352;-6.356;2023-06-10T03:25:18;27.70;;;18.95;;
35530;SDS011;21637;53.352;-6.356;2023-06-10T03:27:45;31.67;;;18.90;;
35530;SDS011;21637;53.352;-6.356;2023-06-10T03:30:12;36.75;;;20.25;;
35530;SDS011;21637;53.352;-6.356;2023-06-10T03:32:39;42.78;;;19.88;;
35530;SDS011;21637;53.352;-6.356;2023-06-10T03:35:06;32.08;;;20.17;;
35530;SDS011;21637;53.352;-6.356;2023-06-10T03:37:32;32.28;;;19.35;;
35530;SDS011;21637;53.352;-6.356;2023-06-10T03:39:58;31.10;;;17.40;;
35530;SDS011;21637;53.352;-6.356;2023-06-10T03:42:24;37.90;;;19.60;;
35530;SDS011;21637;53.352;-6.356;2023-06-10T03:44:50;41.55;;;19.92;;
35530;SDS011;21637;53.352;-6.356;2023-06-10T03:47:15;34.20;;;17.52;;
35530;SDS011;21637;53.352;-6.356;2023-06-10T03:49:41;33.20;;;17.20;;
35530;SDS011;21637;53.352;-6.356;2023-06-10T03:52:07;29.55;;;17.60;;
35530;SDS011;21637;53.352;-6.356;2023-06-10T03:54:33;27.92;;;17.60;;
35530;SDS011;21637;53.352;-6.356;2023-06-10T03:57:01;29.42;;;17.30;;
35530;SDS011;21637;53.352;-6.356;2023-06-10T03:59:28;26.58;;;18.20;;
35530;SDS011;21637;53.352;-6.356;2023-06-10T04:01:54;35.47;;;18.85;;
35530;SDS011;21637;53.352;-6.356;2023-06-10T04:04:20;27.58;;;17.70;;
35530;SDS011;21637;53.352;-6.356;2023-06-10T04:06:45;35.20;;;17.35;;
35530;SDS011;21637;53.352;-6.356;2023-06-10T04:09:12;31.05;;;18.10;;
35530;SDS011;21637;53.352;-6.356;2023-06-10T04:11:37;32.80;;;17.23;;
35530;SDS011;21637;53.352;-6.356;2023-06-10T04:14:03;28.63;;;16.95;;
35530;SDS011;21637;53.352;-6.356;2023-06-10T04:16:29;32.45;;;16.95;;
35530;SDS011;21637;53.352;-6.356;2023-06-10T04:18:55;26.95;;;16.52;;
35530;SDS011;21637;53.352;-6.356;2023-06-10T04:21:20;27.40;;;16.45;;
35530;SDS011;21637;53.352;-6.356;2023-06-10T04:23:47;30.55;;;15.05;;
35530;SDS011;21637;53.352;-6.356;2023-06-10T04:26:13;27.23;;;16.30;;
35530;SDS011;21637;53.352;-6.356;2023-06-10T04:28:39;30.35;;;16.17;;
35530;SDS011;21637;53.352;-6.356;2023-06-10T04:31:05;30.55;;;15.60;;
35530;SDS011;21637;53.352;-6.356;2023-06-10T04:33:30;32.65;;;16.27;;
35530;SDS011;21637;53.352;-6.356;2023-06-10T04:35:56;23.83;;;16.40;;
35530;SDS011;21637;53.352;-6.356;2023-06-10T04:38:22;29.48;;;16.38;;
35530;SDS011;21637;53.352;-6.356;2023-06-10T04:40:48;30.08;;;16.48;;
35530;SDS011;21637;53.352;-6.356;2023-06-10T04:43:14;29.02;;;15.50;;
35530;SDS011;21637;53.352;-6.356;2023-06-10T04:45:41;29.20;;;14.85;;
35530;SDS011;21637;53.352;-6.356;2023-06-10T04:48:09;31.20;;;15.35;;
35530;SDS011;21637;53.352;-6.356;2023-06-10T04:50:36;23.05;;;14.02;;
35530;SDS011;21637;53.352;-6.356;2023-06-10T04:53:02;24.27;;;13.63;;
35530;SDS011;21637;53.352;-6.356;2023-06-10T04:55:28;19.92;;;14.05;;
35530;SDS011;21637;53.352;-6.356;2023-06-10T04:57:54;24.35;;;14.07;;
35530;SDS011;21637;53.352;-6.356;2023-06-10T05:00:20;26.42;;;14.85;;
35530;SDS011;21637;53.352;-6.356;2023-06-10T05:02:46;29.75;;;15.68;;
35530;SDS011;21637;53.352;-6.356;2023-06-10T05:05:17;24.58;;;14.52;;
35530;SDS011;21637;53.352;-6.356;2023-06-10T05:07:43;24.98;;;13.85;;
35530;SDS011;21637;53.352;-6.356;2023-06-10T05:10:09;24.33;;;13.95;;
35530;SDS011;21637;53.352;-6.356;2023-06-10T05:12:37;22.42;;;13.20;;
35530;SDS011;21637;53.352;-6.356;2023-06-10T05:15:06;23.38;;;13.52;;
35530;SDS011;21637;53.352;-6.356;2023-06-10T05:17:32;28.42;;;15.07;;
35530;SDS011;21637;53.352;-6.356;2023-06-10T05:20:00;20.55;;;13.35;;
35530;SDS011;21637;53.352;-6.356;2023-06-10T05:22:26;24.48;;;14.57;;
35530;SDS011;21637;53.352;-6.356;2023-06-10T05:24:52;23.27;;;13.13;;
35530;SDS011;21637;53.352;-6.356;2023-06-10T05:27:18;24.42;;;12.70;;
35530;SDS011;21637;53.352;-6.356;2023-06-10T05:29:44;28.13;;;13.88;;
35530;SDS011;21637;53.352;-6.356;2023-06-10T05:32:10;21.70;;;12.45;;
35530;SDS011;21637;53.352;-6.356;2023-06-10T05:34:36;27.00;;;13.18;;
35530;SDS011;21637;53.352;-6.356;2023-06-10T05:37:02;30.15;;;13.85;;
35530;SDS011;21637;53.352;-6.356;2023-06-10T05:39:29;22.42;;;12.57;;
35530;SDS011;21637;53.352;-6.356;2023-06-10T05:41:54;24.10;;;12.15;;
35530;SDS011;21637;53.352;-6.356;2023-06-10T05:44:20;19.70;;;12.93;;
35530;SDS011;21637;53.352;-6.356;2023-06-10T05:46:46;27.02;;;13.40;;
35530;SDS011;21637;53.352;-6.356;2023-06-10T05:49:11;22.67;;;12.32;;
35530;SDS011;21637;53.352;-6.356;2023-06-10T05:51:37;25.50;;;13.05;;
35530;SDS011;21637;53.352;-6.356;2023-06-10T05:54:03;28.38;;;12.70;;
35530;SDS011;21637;53.352;-6.356;2023-06-10T05:56:29;25.35;;;12.45;;
35530;SDS011;21637;53.352;-6.356;2023-06-10T05:58:55;21.98;;;12.23;;
35530;SDS011;21637;53.352;-6.356;2023-06-10T06:01:21;25.48;;;13.13;;
35530;SDS011;21637;53.352;-6.356;2023-06-10T06:03:47;28.92;;;12.80;;
35530;SDS011;21637;53.352;-6.356;2023-06-10T06:06:12;26.58;;;12.50;;
35530;SDS011;21637;53.352;-6.356;2023-06-10T06:08:38;23.42;;;11.70;;
35530;SDS011;21637;53.352;-6.356;2023-06-10T06:11:04;30.13;;;13.00;;
35530;SDS011;21637;53.352;-6.356;2023-06-10T06:13:30;24.52;;;12.60;;
35530;SDS011;21637;53.352;-6.356;2023-06-10T06:15:55;21.67;;;11.15;;
35530;SDS011;21637;53.352;-6.356;2023-06-10T06:18:21;28.13;;;11.45;;
35530;SDS011;21637;53.352;-6.356;2023-06-10T06:20:47;30.55;;;11.98;;
35530;SDS011;21637;53.352;-6.356;2023-06-10T06:23:12;28.05;;;12.25;;
35530;SDS011;21637;53.352;-6.356;2023-06-10T06:25:38;30.15;;;12.93;;
35530;SDS011;21637;53.352;-6.356;2023-06-10T06:28:07;22.83;;;12.70;;
35530;SDS011;21637;53.352;-6.356;2023-06-10T06:30:36;25.13;;;11.80;;
35530;SDS011;21637;53.352;-6.356;2023-06-10T06:33:01;26.13;;;11.55;;
35530;SDS011;21637;53.352;-6.356;2023-06-10T06:35:30;26.98;;;12.80;;
35530;SDS011;21637;53.352;-6.356;2023-06-10T06:37:56;21.95;;;11.93;;
35530;SDS011;21637;53.352;-6.356;2023-06-10T06:40:23;24.77;;;11.07;;
35530;SDS011;21637;53.352;-6.356;2023-06-10T06:42:49;29.25;;;11.80;;
35530;SDS011;21637;53.352;-6.356;2023-06-10T06:45:15;29.90;;;12.25;;
35530;SDS011;21637;53.352;-6.356;2023-06-10T06:47:41;24.42;;;11.02;;
35530;SDS011;21637;53.352;-6.356;2023-06-10T06:50:06;30.38;;;12.38;;
35530;SDS011;21637;53.352;-6.356;2023-06-10T06:52:32;31.00;;;12.68;;
35530;SDS011;21637;53.352;-6.356;2023-06-10T06:54:58;20.13;;;11.43;;
35530;SDS011;21637;53.352;-6.356;2023-06-10T06:57:24;29.08;;;11.98;;
35530;SDS011;21637;53.352;-6.356;2023-06-10T06:59:50;23.83;;;11.27;;
35530;SDS011;21637;53.352;-6.356;2023-06-10T07:02:15;27.55;;;11.95;;
35530;SDS011;21637;53.352;-6.356;2023-06-10T07:04:41;22.02;;;11.70;;
35530;SDS011;21637;53.352;-6.356;2023-06-10T07:07:07;29.25;;;11.38;;
35530;SDS011;21637;53.352;-6.356;2023-06-10T07:09:34;21.40;;;10.82;;
35530;SDS011;21637;53.352;-6.356;2023-06-10T07:11:59;17.73;;;9.52;;
35530;SDS011;21637;53.352;-6.356;2023-06-10T07:14:26;20.70;;;10.13;;
35530;SDS011;21637;53.352;-6.356;2023-06-10T07:16:51;20.00;;;10.40;;
35530;SDS011;21637;53.352;-6.356;2023-06-10T07:19:17;25.10;;;10.52;;
35530;SDS011;21637;53.352;-6.356;2023-06-10T07:21:43;21.20;;;11.10;;
35530;SDS011;21637;53.352;-6.356;2023-06-10T07:24:08;29.25;;;9.77;;
35530;SDS011;21637;53.352;-6.356;2023-06-10T07:26:34;22.75;;;10.20;;
35530;SDS011;21637;53.352;-6.356;2023-06-10T07:29:00;24.95;;;11.32;;
35530;SDS011;21637;53.352;-6.356;2023-06-10T07:31:26;22.90;;;10.80;;
35530;SDS011;21637;53.352;-6.356;2023-06-10T07:33:51;25.95;;;10.93;;
35530;SDS011;21637;53.352;-6.356;2023-06-10T07:36:17;26.17;;;12.07;;
35530;SDS011;21637;53.352;-6.356;2023-06-10T07:38:43;26.98;;;11.25;;
35530;SDS011;21637;53.352;-6.356;2023-06-10T07:41:08;23.38;;;10.90;;
35530;SDS011;21637;53.352;-6.356;2023-06-10T07:43:34;22.90;;;10.13;;
35530;SDS011;21637;53.352;-6.356;2023-06-10T07:46:00;22.73;;;10.30;;
35530;SDS011;21637;53.352;-6.356;2023-06-10T07:48:26;31.02;;;11.32;;
35530;SDS011;21637;53.352;-6.356;2023-06-10T07:50:52;21.00;;;9.57;;
35530;SDS011;21637;53.352;-6.356;2023-06-10T07:53:17;35.15;;;11.30;;
35530;SDS011;21637;53.352;-6.356;2023-06-10T07:55:43;22.45;;;11.05;;
35530;SDS011;21637;53.352;-6.356;2023-06-10T07:58:09;21.30;;;11.00;;
35530;SDS011;21637;53.352;-6.356;2023-06-10T08:00:35;27.77;;;10.85;;
35530;SDS011;21637;53.352;-6.356;2023-06-10T08:03:00;24.13;;;10.80;;
35530;SDS011;21637;53.352;-6.356;2023-06-10T08:05:26;24.25;;;11.30;;
35530;SDS011;21637;53.352;-6.356;2023-06-10T08:07:52;17.65;;;9.75;;
35530;SDS011;21637;53.352;-6.356;2023-06-10T08:10:18;22.63;;;11.15;;
35530;SDS011;21637;53.352;-6.356;2023-06-10T08:12:43;24.52;;;11.23;;
35530;SDS011;21637;53.352;-6.356;2023-06-10T08:15:09;20.23;;;9.80;;
35530;SDS011;21637;53.352;-6.356;2023-06-10T08:17:36;25.85;;;11.07;;
35530;SDS011;21637;53.352;-6.356;2023-06-10T08:20:03;23.85;;;11.57;;
35530;SDS011;21637;53.352;-6.356;2023-06-10T08:22:29;21.17;;;10.85;;
35530;SDS011;21637;53.352;-6.356;2023-06-10T08:24:55;20.90;;;10.32;;
35530;SDS011;21637;53.352;-6.356;2023-06-10T08:27:21;23.77;;;11.13;;
35530;SDS011;21637;53.352;-6.356;2023-06-10T08:29:47;22.70;;;11.15;;
35530;SDS011;21637;53.352;-6.356;2023-06-10T08:32:12;17.60;;;10.32;;
35530;SDS011;21637;53.352;-6.356;2023-06-10T08:34:38;21.02;;;11.10;;
35530;SDS011;21637;53.352;-6.356;2023-06-10T08:37:04;22.42;;;10.55;;
35530;SDS011;21637;53.352;-6.356;2023-06-10T08:39:30;23.10;;;11.18;;
35530;SDS011;21637;53.352;-6.356;2023-06-10T08:42:09;21.33;;;10.25;;
35530;SDS011;21637;53.352;-6.356;2023-06-10T08:44:48;22.27;;;10.68;;
35530;SDS011;21637;53.352;-6.356;2023-06-10T08:47:18;26.55;;;11.13;;
35530;SDS011;21637;53.352;-6.356;2023-06-10T08:49:47;19.85;;;10.20;;
35530;SDS011;21637;53.352;-6.356;2023-06-10T08:52:19;24.85;;;11.15;;
35530;SDS011;21637;53.352;-6.356;2023-06-10T08:54:49;22.70;;;10.02;;
35530;SDS011;21637;53.352;-6.356;2023-06-10T08:57:19;24.73;;;11.23;;
35530;SDS011;21637;53.352;-6.356;2023-06-10T08:59:47;19.17;;;11.52;;
35530;SDS011;21637;53.352;-6.356;2023-06-10T09:02:13;21.85;;;10.82;;
35530;SDS011;21637;53.352;-6.356;2023-06-10T09:04:41;30.75;;;11.55;;
35530;SDS011;21637;53.352;-6.356;2023-06-10T09:07:09;23.10;;;10.65;;
35530;SDS011;21637;53.352;-6.356;2023-06-10T09:09:35;20.13;;;10.60;;
35530;SDS011;21637;53.352;-6.356;2023-06-10T09:12:02;18.80;;;10.27;;
35530;SDS011;21637;53.352;-6.356;2023-06-10T09:14:28;23.38;;;12.18;;
35530;SDS011;21637;53.352;-6.356;2023-06-10T09:16:54;25.17;;;10.88;;
35530;SDS011;21637;53.352;-6.356;2023-06-10T09:19:23;22.30;;;10.50;;
35530;SDS011;21637;53.352;-6.356;2023-06-10T09:21:51;21.38;;;10.70;;
35530;SDS011;21637;53.352;-6.356;2023-06-10T09:24:17;28.00;;;11.15;;
35530;SDS011;21637;53.352;-6.356;2023-06-10T09:26:43;23.08;;;11.23;;
35530;SDS011;21637;53.352;-6.356;2023-06-10T09:29:10;23.25;;;11.02;;
35530;SDS011;21637;53.352;-6.356;2023-06-10T09:31:40;25.13;;;11.77;;
35530;SDS011;21637;53.352;-6.356;2023-06-10T09:34:06;21.05;;;10.52;;
35530;SDS011;21637;53.352;-6.356;2023-06-10T09:36:37;20.83;;;10.07;;
35530;SDS011;21637;53.352;-6.356;2023-06-10T09:39:03;22.35;;;11.95;;
35530;SDS011;21637;53.352;-6.356;2023-06-10T09:41:36;29.85;;;11.98;;
35530;SDS011;21637;53.352;-6.356;2023-06-10T09:44:12;26.08;;;11.20;;
35530;SDS011;21637;53.352;-6.356;2023-06-10T09:46:45;23.50;;;11.68;;
35530;SDS011;21637;53.352;-6.356;2023-06-10T09:49:12;21.08;;;11.10;;
35530;SDS011;21637;53.352;-6.356;2023-06-10T09:51:41;27.63;;;11.80;;
35530;SDS011;21637;53.352;-6.356;2023-06-10T09:54:18;28.33;;;11.30;;
35530;SDS011;21637;53.352;-6.356;2023-06-10T09:56:48;26.88;;;10.65;;
35530;SDS011;21637;53.352;-6.356;2023-06-10T09:59:14;20.85;;;11.52;;
35530;SDS011;21637;53.352;-6.356;2023-06-10T10:01:41;35.63;;;11.85;;
35530;SDS011;21637;53.352;-6.356;2023-06-10T10:04:07;22.98;;;10.52;;
35530;SDS011;21637;53.352;-6.356;2023-06-10T10:06:32;27.17;;;11.48;;
35530;SDS011;21637;53.352;-6.356;2023-06-10T10:09:00;25.38;;;11.07;;
35530;SDS011;21637;53.352;-6.356;2023-06-10T10:11:26;22.25;;;11.13;;
35530;SDS011;21637;53.352;-6.356;2023-06-10T10:13:52;27.60;;;11.55;;
35530;SDS011;21637;53.352;-6.356;2023-06-10T10:16:33;17.63;;;10.90;;
35530;SDS011;21637;53.352;-6.356;2023-06-10T10:19:07;21.92;;;12.27;;
35530;SDS011;21637;53.352;-6.356;2023-06-10T10:21:50;24.17;;;11.48;;
35530;SDS011;21637;53.352;-6.356;2023-06-10T10:24:23;18.80;;;10.80;;
35530;SDS011;21637;53.352;-6.356;2023-06-10T10:26:58;22.20;;;12.05;;
35530;SDS011;21637;53.352;-6.356;2023-06-10T10:29:30;26.70;;;11.75;;
35530;SDS011;21637;53.352;-6.356;2023-06-10T10:32:00;22.88;;;11.82;;
35530;SDS011;21637;53.352;-6.356;2023-06-10T10:34:30;25.70;;;12.55;;
35530;SDS011;21637;53.352;-6.356;2023-06-10T10:37:17;23.65;;;13.07;;
35530;SDS011;21637;53.352;-6.356;2023-06-10T10:39:45;24.23;;;13.57;;
35530;SDS011;21637;53.352;-6.356;2023-06-10T10:42:10;27.85;;;14.70;;
35530;SDS011;21637;53.352;-6.356;2023-06-10T10:44:37;29.83;;;14.00;;
35530;SDS011;21637;53.352;-6.356;2023-06-10T10:47:06;22.38;;;13.13;;
35530;SDS011;21637;53.352;-6.356;2023-06-10T10:49:35;24.23;;;13.63;;
35530;SDS011;21637;53.352;-6.356;2023-06-10T10:52:02;34.53;;;15.65;;
35530;SDS011;21637;53.352;-6.356;2023-06-10T10:54:34;26.55;;;13.63;;
35530;SDS011;21637;53.352;-6.356;2023-06-10T10:59:43;28.75;;;14.13;;
35530;SDS011;21637;53.352;-6.356;2023-06-10T11:05:08;30.23;;;13.90;;
35530;SDS011;21637;53.352;-6.356;2023-06-10T11:07:35;26.67;;;14.65;;
35530;SDS011;21637;53.352;-6.356;2023-06-10T11:10:11;26.13;;;13.98;;
35530;SDS011;21637;53.352;-6.356;2023-06-10T11:12:50;26.27;;;13.68;;
35530;SDS011;21637;53.352;-6.356;2023-06-10T11:15:27;26.17;;;13.93;;
35530;SDS011;21637;53.352;-6.356;2023-06-10T11:18:10;25.98;;;13.65;;
35530;SDS011;21637;53.352;-6.356;2023-06-10T11:31:21;23.73;;;12.32;;
35530;SDS011;21637;53.352;-6.356;2023-06-10T11:33:55;23.75;;;12.10;;
35530;SDS011;21637;53.352;-6.356;2023-06-10T11:36:22;21.80;;;12.57;;
35530;SDS011;21637;53.352;-6.356;2023-06-10T11:38:48;26.25;;;12.10;;
35530;SDS011;21637;53.352;-6.356;2023-06-10T11:41:18;21.83;;;12.68;;
35530;SDS011;21637;53.352;-6.356;2023-06-10T11:43:44;20.38;;;11.93;;
35530;SDS011;21637;53.352;-6.356;2023-06-10T11:46:11;31.45;;;13.00;;
35530;SDS011;21637;53.352;-6.356;2023-06-10T11:48:48;22.67;;;12.25;;
35530;SDS011;21637;53.352;-6.356;2023-06-10T11:51:17;29.75;;;12.88;;
35530;SDS011;21637;53.352;-6.356;2023-06-10T11:53:44;28.70;;;13.32;;
35530;SDS011;21637;53.352;-6.356;2023-06-10T11:56:11;22.63;;;11.70;;
35530;SDS011;21637;53.352;-6.356;2023-06-10T11:58:37;20.05;;;11.98;;
35530;SDS011;21637;53.352;-6.356;2023-06-10T12:01:08;24.73;;;12.35;;
35530;SDS011;21637;53.352;-6.356;2023-06-10T12:03:37;28.65;;;12.82;;
35530;SDS011;21637;53.352;-6.356;2023-06-10T12:06:04;24.55;;;14.13;;
35530;SDS011;21637;53.352;-6.356;2023-06-10T12:08:30;28.23;;;12.00;;
35530;SDS011;21637;53.352;-6.356;2023-06-10T12:10:57;28.90;;;13.18;;
35530;SDS011;21637;53.352;-6.356;2023-06-10T12:13:27;21.48;;;13.57;;
35530;SDS011;21637;53.352;-6.356;2023-06-10T12:15:53;27.23;;;14.00;;
35530;SDS011;21637;53.352;-6.356;2023-06-10T12:18:20;21.52;;;13.70;;
35530;SDS011;21637;53.352;-6.356;2023-06-10T12:20:50;29.08;;;14.27;;
35530;SDS011;21637;53.352;-6.356;2023-06-10T12:23:17;25.95;;;12.90;;
35530;SDS011;21637;53.352;-6.356;2023-06-10T12:25:53;21.02;;;12.90;;
35530;SDS011;21637;53.352;-6.356;2023-06-10T12:28:23;28.10;;;13.45;;
35530;SDS011;21637;53.352;-6.356;2023-06-10T12:30:50;25.55;;;12.57;;
35530;SDS011;21637;53.352;-6.356;2023-06-10T12:33:16;24.02;;;13.73;;
35530;SDS011;21637;53.352;-6.356;2023-06-10T12:35:47;24.52;;;14.05;;
35530;SDS011;21637;53.352;-6.356;2023-06-10T12:38:14;27.77;;;14.25;;
35530;SDS011;21637;53.352;-6.356;2023-06-10T12:40:46;28.15;;;14.15;;
35530;SDS011;21637;53.352;-6.356;2023-06-10T12:43:12;28.15;;;14.20;;
35530;SDS011;21637;53.352;-6.356;2023-06-10T12:45:38;24.70;;;12.77;;
35530;SDS011;21637;53.352;-6.356;2023-06-10T12:48:11;28.65;;;13.82;;
35530;SDS011;21637;53.352;-6.356;2023-06-10T12:50:42;21.77;;;14.25;;
35530;SDS011;21637;53.352;-6.356;2023-06-10T12:53:09;25.77;;;14.27;;
35530;SDS011;21637;53.352;-6.356;2023-06-10T12:55:38;25.42;;;14.32;;
35530;SDS011;21637;53.352;-6.356;2023-06-10T12:58:04;21.88;;;12.63;;
35530;SDS011;21637;53.352;-6.356;2023-06-10T13:00:30;27.60;;;14.65;;
35530;SDS011;21637;53.352;-6.356;2023-06-10T13:02:56;25.70;;;13.52;;
35530;SDS011;21637;53.352;-6.356;2023-06-10T13:05:25;24.33;;;13.98;;
35530;SDS011;21637;53.352;-6.356;2023-06-10T13:07:50;25.92;;;13.68;;
35530;SDS011;21637;53.352;-6.356;2023-06-10T13:10:16;25.70;;;14.23;;
35530;SDS011;21637;53.352;-6.356;2023-06-10T13:12:43;24.30;;;13.93;;
35530;SDS011;21637;53.352;-6.356;2023-06-10T13:15:09;21.75;;;13.77;;
35530;SDS011;21637;53.352;-6.356;2023-06-10T13:17:36;32.80;;;15.43;;
35530;SDS011;21637;53.352;-6.356;2023-06-10T13:20:02;28.38;;;14.60;;
35530;SDS011;21637;53.352;-6.356;2023-06-10T13:22:30;25.95;;;15.05;;
35530;SDS011;21637;53.352;-6.356;2023-06-10T13:25:00;24.23;;;14.68;;
35530;SDS011;21637;53.352;-6.356;2023-06-10T13:27:30;27.52;;;14.85;;
35530;SDS011;21637;53.352;-6.356;2023-06-10T13:29:56;26.52;;;15.25;;
35530;SDS011;21637;53.352;-6.356;2023-06-10T13:32:21;26.40;;;14.75;;
35530;SDS011;21637;53.352;-6.356;2023-06-10T13:34:47;30.58;;;15.07;;
35530;SDS011;21637;53.352;-6.356;2023-06-10T13:37:14;25.75;;;14.95;;
35530;SDS011;21637;53.352;-6.356;2023-06-10T13:39:43;25.88;;;14.38;;
35530;SDS011;21637;53.352;-6.356;2023-06-10T13:42:10;26.70;;;15.52;;
35530;SDS011;21637;53.352;-6.356;2023-06-10T13:44:36;24.42;;;15.27;;
35530;SDS011;21637;53.352;-6.356;2023-06-10T13:47:04;31.90;;;15.60;;
35530;SDS011;21637;53.352;-6.356;2023-06-10T13:49:30;27.83;;;15.38;;
35530;SDS011;21637;53.352;-6.356;2023-06-10T13:51:56;26.50;;;16.23;;
35530;SDS011;21637;53.352;-6.356;2023-06-10T13:54:22;24.25;;;15.35;;
35530;SDS011;21637;53.352;-6.356;2023-06-10T13:56:48;22.85;;;13.65;;
35530;SDS011;21637;53.352;-6.356;2023-06-10T13:59:13;25.25;;;14.73;;
35530;SDS011;21637;53.352;-6.356;2023-06-10T14:01:39;27.15;;;15.52;;
35530;SDS011;21637;53.352;-6.356;2023-06-10T14:04:05;25.02;;;15.90;;
35530;SDS011;21637;53.352;-6.356;2023-06-10T14:06:32;25.85;;;15.60;;
35530;SDS011;21637;53.352;-6.356;2023-06-10T14:08:58;22.27;;;13.30;;
35530;SDS011;21637;53.352;-6.356;2023-06-10T14:11:24;26.15;;;15.27;;
35530;SDS011;21637;53.352;-6.356;2023-06-10T14:13:50;28.63;;;15.20;;
35530;SDS011;21637;53.352;-6.356;2023-06-10T14:16:16;24.00;;;14.43;;
35530;SDS011;21637;53.352;-6.356;2023-06-10T14:18:42;18.77;;;13.80;;
35530;SDS011;21637;53.352;-6.356;2023-06-10T14:21:07;24.42;;;13.75;;
35530;SDS011;21637;53.352;-6.356;2023-06-10T14:23:33;25.10;;;14.10;;
35530;SDS011;21637;53.352;-6.356;2023-06-10T14:25:59;27.92;;;14.40;;
35530;SDS011;21637;53.352;-6.356;2023-06-10T14:28:25;20.63;;;13.32;;
35530;SDS011;21637;53.352;-6.356;2023-06-10T14:30:52;25.20;;;14.73;;